createdAt,value
2023-04-18T00:02:07.372Z,12.60
2023-04-18T00:06:59.072Z,13.70
2023-04-18T00:11:51.262Z,13.32
2023-04-18T00:16:43.358Z,12.07
2023-04-18T00:21:36.113Z,12.43
2023-04-18T00:26:28.214Z,11.23
2023-04-18T00:31:19.805Z,13.95
2023-04-18T00:36:11.439Z,12.43
2023-04-18T00:41:03.220Z,12.25
2023-04-18T00:45:57.138Z,10.18
2023-04-18T00:50:48.971Z,9.32
2023-04-18T00:55:40.721Z,10.85
2023-04-18T01:00:32.335Z,8.30
2023-04-18T01:05:24.164Z,7.03
2023-04-18T01:10:15.950Z,8.13
2023-04-18T01:15:08.115Z,9.93
2023-04-18T01:20:01.852Z,8.68
2023-04-18T01:24:53.416Z,8.73
2023-04-18T01:29:45.648Z,9.82
2023-04-18T01:34:37.377Z,7.70
2023-04-18T01:39:28.938Z,9.93
2023-04-18T01:44:20.535Z,10.20
2023-04-18T01:49:12.235Z,10.82
2023-04-18T01:54:03.933Z,14.27
2023-04-18T01:58:56.178Z,12.27
2023-04-18T02:03:47.983Z,16.63
2023-04-18T02:08:39.761Z,14.65
2023-04-18T02:13:31.446Z,13.18
2023-04-18T02:18:24.873Z,16.63
2023-04-18T02:23:16.443Z,17.60
2023-04-18T02:28:08.140Z,15.95
2023-04-18T02:32:59.773Z,17.08
2023-04-18T02:37:51.521Z,15.85
2023-04-18T02:42:43.178Z,14.27
2023-04-18T02:47:46.929Z,18.13
2023-04-18T02:52:43.982Z,16.98
2023-04-18T02:57:35.535Z,18.02
2023-04-18T03:02:27.178Z,16.58
2023-04-18T03:07:18.844Z,21.83
2023-04-18T03:12:10.417Z,16.33
2023-04-18T03:17:02.312Z,20.13
2023-04-18T03:21:53.949Z,17.83
2023-04-18T03:26:46.094Z,19.73
2023-04-18T03:31:37.719Z,22.00
2023-04-18T03:36:29.976Z,18.88
2023-04-18T03:41:21.705Z,20.88
2023-04-18T03:46:13.252Z,21.45
2023-04-18T03:51:06.062Z,22.65
2023-04-18T03:55:58.045Z,21.75
2023-04-18T04:00:51.864Z,22.10
2023-04-18T04:05:43.703Z,21.63
2023-04-18T04:10:36.005Z,20.40
2023-04-18T04:15:27.614Z,20.88
2023-04-18T04:20:24.834Z,21.75
2023-04-18T04:25:17.471Z,25.15
2023-04-18T04:30:11.980Z,24.20
2023-04-18T04:35:05.901Z,23.88
2023-04-18T04:39:57.498Z,24.27
2023-04-18T04:44:49.140Z,25.95
2023-04-18T04:49:40.783Z,22.90
2023-04-18T04:54:32.342Z,22.30
2023-04-18T04:59:24.080Z,28.15
2023-04-18T05:04:16.008Z,29.35
2023-04-18T05:09:07.924Z,32.47
2023-04-18T05:13:59.701Z,30.13
2023-04-18T05:18:51.251Z,29.10
2023-04-18T05:23:42.885Z,34.00
2023-04-18T05:28:34.532Z,29.33
2023-04-18T05:33:26.203Z,32.63
2023-04-18T05:38:17.736Z,30.67
2023-04-18T05:43:09.267Z,29.42
2023-04-18T05:48:01.094Z,33.90
2023-04-18T05:52:52.765Z,31.95
2023-04-18T05:57:44.346Z,36.40
2023-04-18T06:02:36.048Z,44.30
2023-04-18T06:07:27.820Z,43.90
2023-04-18T06:12:19.629Z,59.83
2023-04-18T06:17:12.956Z,58.33
2023-04-18T06:22:04.528Z,63.83
2023-04-18T06:26:57.401Z,55.83
2023-04-18T06:31:50.679Z,55.13
2023-04-18T06:36:42.770Z,50.30
2023-04-18T06:41:34.527Z,51.50
2023-04-18T06:46:26.236Z,56.55
2023-04-18T06:51:17.916Z,48.30
2023-04-18T06:56:09.464Z,44.28
2023-04-18T07:01:01.038Z,44.85
2023-04-18T07:05:52.666Z,38.92
2023-04-18T07:10:44.310Z,39.13
2023-04-18T07:15:36.227Z,34.53
2023-04-18T07:20:27.961Z,31.30
2023-04-18T07:25:19.787Z,36.95
2023-04-18T07:30:11.960Z,32.35
2023-04-18T07:35:04.226Z,29.50
2023-04-18T07:39:55.783Z,27.83
2023-04-18T07:44:47.938Z,23.65
2023-04-18T07:49:39.497Z,21.75
2023-04-18T07:54:31.136Z,24.98
2023-04-18T07:59:22.735Z,22.85
2023-04-18T08:04:15.193Z,22.13
2023-04-18T08:09:06.923Z,23.58
2023-04-18T08:13:58.577Z,20.13
2023-04-18T08:18:50.271Z,22.83
2023-04-18T08:23:41.845Z,26.23
2023-04-18T08:28:33.443Z,27.02
2023-04-18T08:33:25.114Z,27.23
2023-04-18T08:38:18.154Z,29.30
2023-04-18T08:43:14.189Z,28.55
2023-04-18T08:48:06.333Z,26.00
2023-04-18T08:52:59.320Z,27.83
2023-04-18T08:57:54.197Z,28.10
2023-04-18T09:02:47.166Z,28.38
2023-04-18T09:07:38.957Z,26.25
2023-04-18T09:12:32.780Z,24.70
2023-04-18T09:17:31.870Z,22.73
2023-04-18T09:22:23.578Z,31.27
2023-04-18T09:27:15.179Z,27.27
2023-04-18T09:32:07.137Z,21.00
2023-04-18T09:37:10.071Z,23.08
2023-04-18T09:42:02.488Z,20.50
2023-04-18T09:46:54.159Z,20.88
2023-04-18T09:51:46.333Z,17.80
2023-04-18T09:56:42.831Z,18.35
2023-04-18T10:01:34.888Z,13.90
2023-04-18T10:06:28.647Z,12.93
2023-04-18T10:11:20.561Z,14.75
2023-04-18T10:16:12.921Z,13.57
2023-04-18T10:21:05.114Z,16.05
2023-04-18T10:25:56.918Z,13.32
2023-04-18T10:30:50.200Z,12.88
2023-04-18T10:35:56.783Z,10.80
2023-04-18T10:40:48.330Z,11.77
2023-04-18T10:45:40.019Z,12.13
2023-04-18T10:50:31.596Z,8.15
2023-04-18T10:55:29.212Z,10.63
2023-04-18T11:00:23.510Z,10.82
2023-04-18T11:05:19.925Z,9.23
2023-04-18T11:10:13.007Z,9.70
2023-04-18T11:15:11.928Z,11.18
2023-04-18T11:20:12.760Z,13.27
2023-04-18T11:25:08.546Z,17.35
2023-04-18T11:30:00.225Z,11.70
2023-04-18T11:34:55.522Z,14.57
2023-04-18T11:39:47.273Z,14.68
2023-04-18T11:44:40.102Z,15.90
2023-04-18T11:49:32.994Z,12.55
2023-04-18T11:54:42.151Z,11.65
2023-04-18T11:59:33.962Z,15.52
2023-04-18T12:04:25.765Z,12.80
2023-04-18T12:09:18.850Z,10.13
2023-04-18T12:14:22.985Z,10.20
2023-04-18T12:19:14.677Z,10.63
2023-04-18T12:24:16.003Z,12.77
2023-04-18T12:29:07.834Z,13.52
2023-04-18T12:34:00.176Z,13.15
2023-04-18T12:38:52.031Z,10.07
2023-04-18T12:43:43.587Z,9.80
2023-04-18T12:48:35.212Z,14.38
2023-04-18T12:53:26.804Z,13.75
2023-04-18T12:58:18.891Z,7.78
2023-04-18T13:03:12.959Z,8.73
2023-04-18T13:08:16.077Z,7.72
2023-04-18T13:13:09.108Z,9.00
2023-04-18T13:18:05.110Z,12.93
2023-04-18T13:22:56.759Z,8.55
2023-04-18T13:27:50.177Z,6.15
2023-04-18T13:32:43.901Z,12.30
2023-04-18T13:37:36.156Z,4.32
2023-04-18T13:42:27.781Z,8.40
2023-04-18T13:47:19.465Z,6.03
2023-04-18T13:52:11.129Z,8.52
2023-04-18T13:57:03.574Z,6.30
2023-04-18T14:01:55.869Z,8.23
2023-04-18T14:06:48.861Z,7.00
2023-04-18T14:11:40.835Z,6.32
2023-04-18T14:16:33.495Z,4.05
2023-04-18T14:21:26.229Z,7.05
2023-04-18T14:26:18.620Z,6.85
2023-04-18T14:31:10.499Z,6.00
2023-04-18T14:36:02.967Z,5.28
2023-04-18T14:40:55.238Z,8.00
2023-04-18T14:45:46.824Z,7.22
2023-04-18T14:50:38.773Z,9.32
2023-04-18T14:55:30.482Z,6.05
2023-04-18T15:00:22.155Z,7.05
2023-04-18T15:05:13.905Z,5.28
2023-04-18T15:10:06.135Z,5.15
2023-04-18T15:14:59.610Z,6.43
2023-04-18T15:19:51.256Z,9.00
2023-04-18T15:24:42.884Z,8.20
2023-04-18T15:29:34.456Z,6.72
2023-04-18T15:34:26.861Z,8.40
2023-04-18T15:39:21.917Z,8.07
2023-04-18T15:44:13.635Z,11.48
2023-04-18T15:49:05.603Z,5.15
2023-04-18T15:53:57.163Z,6.00
2023-04-18T15:58:49.254Z,7.30
2023-04-18T16:03:40.995Z,4.65
2023-04-18T16:08:33.475Z,8.95
2023-04-18T16:13:25.292Z,5.55
2023-04-18T16:18:16.848Z,9.45
2023-04-18T16:23:08.404Z,6.13
2023-04-18T16:27:59.966Z,10.68
2023-04-18T16:32:51.613Z,6.93
2023-04-18T16:37:43.204Z,7.28
2023-04-18T16:42:34.777Z,6.70
2023-04-18T16:47:26.492Z,7.75
2023-04-18T16:52:18.194Z,5.68
2023-04-18T16:57:10.264Z,7.68
2023-04-18T17:02:02.010Z,6.72
2023-04-18T17:06:53.726Z,7.15
2023-04-18T17:11:45.649Z,7.10
2023-04-18T17:16:38.846Z,8.23
2023-04-18T17:21:31.820Z,8.15
2023-04-18T17:26:24.452Z,6.00
2023-04-18T17:31:16.297Z,5.22
2023-04-18T17:36:08.015Z,12.82
2023-04-18T17:41:04.652Z,8.65
2023-04-18T17:45:59.296Z,6.05
2023-04-18T17:50:50.997Z,11.98
2023-04-18T17:55:42.639Z,6.70
2023-04-18T18:00:34.180Z,7.32
2023-04-18T18:05:25.955Z,5.22
2023-04-18T18:10:23.232Z,5.78
2023-04-18T18:15:15.431Z,7.90
2023-04-18T18:20:10.588Z,7.97
2023-04-18T18:25:03.158Z,6.60
2023-04-18T18:29:54.695Z,7.35
2023-04-18T18:34:46.365Z,5.20
2023-04-18T18:39:37.973Z,6.43
2023-04-18T18:44:30.396Z,6.65
2023-04-18T18:49:22.023Z,8.10
2023-04-18T18:54:13.626Z,12.48
2023-04-18T18:59:05.336Z,5.88
2023-04-18T19:03:57.018Z,6.93
2023-04-18T19:08:48.688Z,5.32
2023-04-18T19:13:40.245Z,3.58
2023-04-18T19:18:31.879Z,4.90
2023-04-18T19:23:25.233Z,6.95
2023-04-18T19:28:18.419Z,5.25
2023-04-18T19:33:10.221Z,3.67
2023-04-18T19:38:02.479Z,5.88
2023-04-18T19:42:54.085Z,4.80
2023-04-18T19:47:47.668Z,8.95
2023-04-18T19:52:39.453Z,4.57
2023-04-18T19:57:31.000Z,4.57
2023-04-18T20:02:22.732Z,7.68
2023-04-18T20:07:14.434Z,5.47
2023-04-18T20:12:06.022Z,8.18
2023-04-18T20:16:57.998Z,6.05
2023-04-18T20:21:49.637Z,4.40
2023-04-18T20:26:41.199Z,6.43
2023-04-18T20:31:32.809Z,7.22
2023-04-18T20:36:24.908Z,7.97
2023-04-18T20:41:21.002Z,8.73
2023-04-18T20:46:13.136Z,8.15
2023-04-18T20:51:04.763Z,7.10
2023-04-18T20:55:56.395Z,6.93
2023-04-18T21:00:48.929Z,7.88
2023-04-18T21:05:40.805Z,10.45
2023-04-18T21:10:32.392Z,7.90
2023-04-18T21:15:23.961Z,10.63
2023-04-18T21:20:15.957Z,7.95
2023-04-18T21:25:07.951Z,6.72
2023-04-18T21:29:59.488Z,7.15
2023-04-18T21:34:51.056Z,10.05
2023-04-18T21:39:42.646Z,13.50
2023-04-18T21:44:34.309Z,7.85
2023-04-18T21:49:25.865Z,10.25
2023-04-18T21:54:17.439Z,9.75
2023-04-18T21:59:09.592Z,11.32
2023-04-18T22:04:02.110Z,10.15
2023-04-18T22:08:53.972Z,11.27
2023-04-18T22:13:45.980Z,16.27
2023-04-18T22:18:38.806Z,10.82
2023-04-18T22:23:30.947Z,13.82
2023-04-18T22:28:25.132Z,14.73
2023-04-18T22:33:16.716Z,13.63
2023-04-18T22:38:08.419Z,11.10
2023-04-18T22:42:59.980Z,13.88
2023-04-18T22:47:51.586Z,13.90
2023-04-18T22:52:43.283Z,13.00
2023-04-18T22:57:34.932Z,15.18
2023-04-18T23:02:26.642Z,14.18
2023-04-18T23:07:18.302Z,13.82
2023-04-18T23:12:09.881Z,14.75
2023-04-18T23:17:01.653Z,17.92
2023-04-18T23:21:54.032Z,14.00
2023-04-18T23:26:45.659Z,12.82
2023-04-18T23:31:37.369Z,18.20
2023-04-18T23:36:28.953Z,13.88
2023-04-18T23:41:20.718Z,15.73
2023-04-18T23:46:13.062Z,14.10
2023-04-18T23:51:04.873Z,16.02
2023-04-18T23:55:56.535Z,12.15
